Terminal Aerodrome Forecast
Issued by NWS

Home | Current Version | Previous Version | Text Only | Print | Product List | Glossary On
Versions: 1 2 3 4 5 6 7 8 9 10 11 12 13 14 15 16 17 18 19 20 21 22 23 24
000
FTUS43 KGRB 151730
TAFATW
TAF
KATW 151730Z 1518/1618 33015G22KT P6SM BKN022
     FM151900 32013G19KT P6SM SCT025 BKN035
      TEMPO 1519/1520 BKN025
     FM152200 27006KT P6SM SCT150=

USA.gov is the U.S. government's official web portal to all federal, state and local government web resources and services.